Whitehall, Ohio
Current Conditions -  °F | °C
As of 6:51 AM on Sunday 21 Dec 2014 (Local Time) from KCMH Reporting Station
Overcast Overcast  
Wind Chill: 30°   Ceiling: 2500
Heat Index: 30°   Visibility: 8mi
Dew Point: 20°   Wind: 0mph
Humidity: 66%   Direction: NA
Pressure: 30.31"   Gusts: NA
Location:  39.97°N, 82.88°W
Report Text: KCMH 211151Z 00000KT 8SM OVC025 M01/M07 A3031 RMK AO2 SLP272 T10111067 11011 21017 53002
Loading
Personal Weather Stations






























Interactive Weather Map New forecast layout! Learn more

10-Day Weather Forecast

Advertisements
Track Severe Weather on mobile